Time;durP1;ratioP1;P1;durP2;ratioP2;P2;SDS_P1;SDS_P2;PMS_P1;PMS_P2;Temp;Humidity;BMP_temperature;BMP_pressure;BME280_temperature;BME280_humidity;BME280_pressure;Samples;Min_cycle;Max_cycle;Signal;HPM_P1;HPM_P2
2022/10/21 00:00:35;;;;;;;19.53;13.07;;;17.60;99.90;;;;;;5044301;28;20995;-70
2022/10/21 00:03:02;;;;;;;21.97;13.03;;;17.60;99.90;;;;;;5020117;28;20229;-70
2022/10/21 00:05:29;;;;;;;18.33;12.73;;;17.60;99.90;;;;;;5027163;28;20264;-70
2022/10/21 00:07:55;;;;;;;16.30;12.93;;;17.60;99.90;;;;;;5030791;28;20274;-70
2022/10/21 00:10:22;;;;;;;18.60;13.33;;;17.60;99.90;;;;;;5035918;28;20211;-70
2022/10/21 00:12:48;;;;;;;18.03;12.77;;;17.60;99.90;;;;;;5019286;28;20275;-70
2022/10/21 00:15:14;;;;;;;24.67;13.30;;;17.60;99.90;;;;;;5026731;28;20183;-70
2022/10/21 00:17:43;;;;;;;20.43;13.50;;;17.60;99.90;;;;;;5026774;28;20176;-70
2022/10/21 00:20:13;;;;;;;19.70;12.93;;;17.60;99.90;;;;;;5024951;28;20196;-70
2022/10/21 00:22:40;;;;;;;17.33;12.70;;;17.60;99.90;;;;;;5011341;28;20200;-70
2022/10/21 00:25:07;;;;;;;25.20;13.53;;;17.70;99.90;;;;;;5026491;28;20199;-70
2022/10/21 00:27:34;;;;;;;17.87;12.63;;;17.70;99.90;;;;;;5024589;28;20243;-70
2022/10/21 00:30:00;;;;;;;17.83;13.47;;;17.70;99.90;;;;;;5026653;28;20250;-70
2022/10/21 00:32:27;;;;;;;19.03;12.67;;;17.60;99.90;;;;;;5044441;28;20290;-70
2022/10/21 00:34:53;;;;;;;20.77;12.77;;;17.60;99.90;;;;;;5045041;28;20626;-70
2022/10/21 00:37:19;;;;;;;19.73;12.93;;;17.60;99.90;;;;;;5016357;28;20275;-70
2022/10/21 00:39:46;;;;;;;17.50;13.10;;;17.60;99.90;;;;;;5029524;28;20821;-70
2022/10/21 00:42:18;;;;;;;15.83;13.13;;;17.60;99.90;;;;;;5028491;28;20172;-70
2022/10/21 00:45:12;;;;;;;19.23;12.00;;;17.60;99.90;;;;;;5053716;28;20187;-70
2022/10/21 00:47:52;;;;;;;21.97;12.57;;;17.60;99.90;;;;;;5026684;28;20195;-70
2022/10/21 00:50:54;;;;;;;20.40;12.47;;;17.60;99.90;;;;;;5043190;28;20693;-70
2022/10/21 00:53:23;;;;;;;18.27;12.67;;;17.60;99.90;;;;;;5020435;28;20772;-70
2022/10/21 00:56:00;;;;;;;19.00;12.80;;;17.60;99.90;;;;;;5027450;28;20275;-70
2022/10/21 00:58:32;;;;;;;23.30;13.47;;;17.60;99.90;;;;;;5042116;28;20184;-70
2022/10/21 01:01:02;;;;;;;20.40;12.43;;;17.60;99.90;;;;;;5015864;28;20271;-70
2022/10/21 01:03:31;;;;;;;20.23;13.60;;;17.70;99.90;;;;;;5016960;28;20212;-70
2022/10/21 01:06:02;;;;;;;16.23;12.93;;;17.70;99.90;;;;;;5024826;28;20212;-70
2022/10/21 01:08:30;;;;;;;17.33;12.50;;;17.70;99.90;;;;;;5029615;28;20188;-70
2022/10/21 01:10:59;;;;;;;18.77;12.40;;;17.70;99.90;;;;;;5033766;28;20236;-70
2022/10/21 01:13:30;;;;;;;18.67;13.23;;;17.70;99.90;;;;;;5042875;28;20185;-70
2022/10/21 01:16:43;;;;;;;19.37;12.80;;;17.70;99.90;;;;;;5027643;28;20248;-70
2022/10/21 01:19:37;;;;;;;18.73;13.27;;;17.70;99.90;;;;;;4999610;28;20188;-70
2022/10/21 01:22:46;;;;;;;19.87;12.50;;;17.80;99.90;;;;;;4995951;28;20295;-70
2022/10/21 01:26:11;;;;;;;18.37;13.13;;;17.80;99.90;;;;;;5028333;28;20490;-70
2022/10/21 01:29:14;;;;;;;18.87;13.30;;;17.80;99.90;;;;;;5018386;28;20200;-70
2022/10/21 01:31:51;;;;;;;19.13;12.80;;;17.80;99.90;;;;;;5024245;28;20184;-70
2022/10/21 01:34:44;;;;;;;16.50;13.57;;;17.80;99.90;;;;;;5010459;28;20242;-70
2022/10/21 01:37:27;;;;;;;18.23;12.80;;;17.80;99.90;;;;;;5021857;28;20187;-70
2022/10/21 01:40:09;;;;;;;17.30;12.83;;;17.80;99.90;;;;;;5043097;28;20245;-70
2022/10/21 01:43:39;;;;;;;18.07;13.87;;;17.80;99.90;;;;;;5037083;28;20191;-70
2022/10/21 01:46:37;;;;;;;20.00;12.77;;;17.80;99.90;;;;;;4982495;28;20196;-70
2022/10/21 01:49:22;;;;;;;17.00;12.60;;;17.80;99.90;;;;;;5007686;28;20184;-70
2022/10/21 01:51:52;;;;;;;20.50;13.33;;;17.80;99.90;;;;;;5010417;28;20281;-70
2022/10/21 01:54:26;;;;;;;17.97;12.90;;;17.80;99.90;;;;;;5005473;28;20270;-70
2022/10/21 01:56:54;;;;;;;18.67;12.73;;;17.80;99.90;;;;;;5048993;28;20190;-70
2022/10/21 01:59:27;;;;;;;17.50;13.03;;;17.70;99.90;;;;;;5041842;28;20291;-70
2022/10/21 02:01:59;;;;;;;17.50;12.60;;;17.70;99.90;;;;;;5028873;28;20180;-70
2022/10/21 02:04:29;;;;;;;21.73;13.20;;;17.70;99.90;;;;;;5010782;28;20195;-70
2022/10/21 02:06:56;;;;;;;17.87;13.07;;;17.70;99.90;;;;;;5024381;28;20207;-70
2022/10/21 02:09:24;;;;;;;18.67;12.63;;;17.70;99.90;;;;;;5039038;28;20856;-70
2022/10/21 02:11:58;;;;;;;18.60;13.50;;;17.70;99.90;;;;;;5022543;28;20276;-70
2022/10/21 02:14:36;;;;;;;17.83;12.60;;;17.80;99.90;;;;;;5025094;28;20292;-70
2022/10/21 02:17:03;;;;;;;25.03;12.60;;;17.70;99.90;;;;;;5017402;28;20190;-70
2022/10/21 02:19:30;;;;;;;16.00;12.47;;;17.70;99.90;;;;;;5018980;28;20197;-70
2022/10/21 02:22:03;;;;;;;19.53;13.20;;;17.70;99.90;;;;;;5040685;28;20406;-70
2022/10/21 02:24:43;;;;;;;18.43;12.87;;;17.70;99.90;;;;;;5024998;28;20946;-70
2022/10/21 02:27:10;;;;;;;25.30;13.60;;;17.60;99.90;;;;;;5022718;28;20192;-70
2022/10/21 02:29:41;;;;;;;21.83;12.50;;;17.60;99.90;;;;;;5023052;28;20222;-70
2022/10/21 02:32:51;;;;;;;17.90;12.80;;;17.70;99.90;;;;;;5035571;28;20216;-70
2022/10/21 02:35:45;;;;;;;19.13;12.70;;;17.60;99.90;;;;;;4959475;28;20203;-70
2022/10/21 02:38:29;;;;;;;21.63;13.00;;;17.60;99.90;;;;;;5043585;28;20200;-70
2022/10/21 02:41:04;;;;;;;21.40;12.43;;;17.60;99.90;;;;;;5016883;28;20195;-70
2022/10/21 02:43:37;;;;;;;15.90;12.00;;;17.40;99.90;;;;;;5034313;28;20226;-70
2022/10/21 02:46:14;;;;;;;17.67;12.03;;;17.50;99.90;;;;;;5046560;28;20188;-70
2022/10/21 02:48:45;;;;;;;23.97;11.73;;;17.50;99.90;;;;;;5024790;28;20215;-70
2022/10/21 02:51:13;;;;;;;16.10;12.17;;;17.50;99.90;;;;;;5005653;28;20213;-70
2022/10/21 02:53:39;;;;;;;19.20;12.33;;;17.40;99.90;;;;;;5027633;28;20192;-70
2022/10/21 02:56:06;;;;;;;22.13;11.40;;;17.40;99.90;;;;;;5026396;28;20204;-70
2022/10/21 02:58:34;;;;;;;19.00;11.70;;;17.40;99.90;;;;;;5014345;28;20184;-70
2022/10/21 03:01:01;;;;;;;18.83;11.50;;;17.40;99.90;;;;;;5031443;28;20224;-70
2022/10/21 03:03:31;;;;;;;16.67;11.30;;;17.40;99.90;;;;;;5051108;28;20187;-70
2022/10/21 03:05:57;;;;;;;19.00;11.43;;;17.30;99.90;;;;;;5046246;28;20202;-70
2022/10/21 03:08:25;;;;;;;17.63;11.53;;;17.20;99.90;;;;;;5031176;28;20185;-70
2022/10/21 03:10:55;;;;;;;20.47;12.17;;;17.20;99.90;;;;;;5042583;28;20515;-70
2022/10/21 03:13:23;;;;;;;20.20;12.00;;;17.20;99.90;;;;;;5043702;28;20185;-70
2022/10/21 03:15:51;;;;;;;21.57;11.20;;;17.20;99.90;;;;;;5030189;28;20199;-70
2022/10/21 03:18:17;;;;;;;14.63;11.03;;;17.00;99.90;;;;;;5029405;28;20183;-70
2022/10/21 03:20:48;;;;;;;19.00;11.63;;;17.00;99.90;;;;;;5038697;28;20175;-70
2022/10/21 03:23:17;;;;;;;16.20;11.73;;;17.00;99.90;;;;;;5029985;28;20199;-70
2022/10/21 03:25:43;;;;;;;18.80;12.10;;;17.00;99.90;;;;;;5030577;28;20186;-70
2022/10/21 03:28:11;;;;;;;17.57;12.47;;;17.00;99.90;;;;;;5024204;28;20185;-70
2022/10/21 03:30:38;;;;;;;21.00;12.20;;;17.00;99.90;;;;;;5027497;28;20220;-70
2022/10/21 03:33:04;;;;;;;19.13;11.83;;;17.00;99.90;;;;;;5027911;28;20185;-70
2022/10/21 03:35:30;;;;;;;18.10;11.10;;;16.90;99.90;;;;;;5043118;28;20559;-70
2022/10/21 03:37:57;;;;;;;16.07;12.27;;;16.90;99.90;;;;;;5029845;28;20267;-70
2022/10/21 03:40:28;;;;;;;19.73;12.43;;;16.90;99.90;;;;;;5027506;28;20688;-70
2022/10/21 03:42:57;;;;;;;21.27;11.70;;;16.90;99.90;;;;;;5022847;28;20275;-70
2022/10/21 03:45:24;;;;;;;18.30;12.60;;;17.00;99.90;;;;;;5035822;28;20205;-70
2022/10/21 03:47:51;;;;;;;14.90;12.80;;;17.00;99.90;;;;;;5031067;28;20267;-69
2022/10/21 03:50:19;;;;;;;17.33;12.17;;;16.90;99.90;;;;;;5027105;28;20488;-70
2022/10/21 03:52:45;;;;;;;19.07;12.93;;;16.90;99.90;;;;;;5027943;28;20188;-70
2022/10/21 03:55:13;;;;;;;22.13;12.87;;;16.90;99.90;;;;;;5029867;28;20188;-70
2022/10/21 03:57:39;;;;;;;19.40;12.47;;;16.90;99.90;;;;;;5026530;28;20184;-70
2022/10/21 04:00:08;;;;;;;19.93;12.13;;;16.90;99.90;;;;;;5018759;28;20255;-70
2022/10/21 04:02:34;;;;;;;17.57;12.53;;;16.90;99.90;;;;;;5015501;28;20270;-70
2022/10/21 04:05:01;;;;;;;16.67;12.90;;;16.90;99.90;;;;;;5042531;28;20192;-70
2022/10/21 04:07:27;;;;;;;20.77;13.47;;;16.90;99.90;;;;;;5013946;28;20216;-70
2022/10/21 04:09:53;;;;;;;20.57;13.47;;;16.90;99.90;;;;;;5017753;28;20208;-70
2022/10/21 04:12:20;;;;;;;19.97;13.67;;;16.90;99.90;;;;;;5027121;28;20268;-70
2022/10/21 04:14:47;;;;;;;24.03;13.70;;;16.90;99.90;;;;;;5029203;28;20187;-70
2022/10/21 04:17:13;;;;;;;20.97;13.90;;;16.90;99.90;;;;;;5026487;28;20254;-70
2022/10/21 04:19:40;;;;;;;19.13;13.87;;;17.00;99.90;;;;;;5013022;28;20220;-70
2022/10/21 04:22:06;;;;;;;21.80;14.57;;;17.00;99.90;;;;;;5028051;28;20180;-70
2022/10/21 04:24:33;;;;;;;18.50;13.37;;;17.00;99.90;;;;;;5029292;28;20626;-70
2022/10/21 04:26:59;;;;;;;25.37;14.73;;;16.90;99.90;;;;;;5028785;28;20184;-70
2022/10/21 04:29:25;;;;;;;19.43;14.23;;;17.00;99.90;;;;;;5022099;28;20181;-70
2022/10/21 04:31:51;;;;;;;17.93;13.43;;;16.90;99.90;;;;;;5024291;28;20263;-70
2022/10/21 04:34:17;;;;;;;23.17;14.17;;;17.00;99.90;;;;;;5025713;28;20205;-70
2022/10/21 04:36:44;;;;;;;21.07;15.00;;;17.00;99.90;;;;;;5037166;28;20712;-70
2022/10/21 04:39:10;;;;;;;19.53;14.73;;;17.00;99.90;;;;;;5028947;28;20993;-70
2022/10/21 04:41:43;;;;;;;18.43;13.90;;;17.10;99.90;;;;;;5029105;28;20200;-70
2022/10/21 04:44:09;;;;;;;19.57;13.93;;;17.10;99.90;;;;;;5045419;28;20613;-70
2022/10/21 04:46:35;;;;;;;21.40;14.60;;;17.10;99.90;;;;;;5027675;28;20216;-70
2022/10/21 04:49:04;;;;;;;21.03;14.50;;;17.10;99.90;;;;;;5027846;28;20188;-70
2022/10/21 04:51:31;;;;;;;20.90;14.33;;;17.10;99.90;;;;;;5023451;28;20220;-70
2022/10/21 04:53:57;;;;;;;24.90;15.00;;;17.10;99.90;;;;;;5037946;28;20534;-70
2022/10/21 04:56:24;;;;;;;22.20;13.93;;;17.10;99.90;;;;;;5045102;28;20211;-70
2022/10/21 04:58:50;;;;;;;18.37;14.27;;;17.20;99.90;;;;;;5029393;28;20176;-70
2022/10/21 05:01:17;;;;;;;22.20;14.90;;;17.20;99.90;;;;;;5044163;28;20185;-70
2022/10/21 05:03:47;;;;;;;20.63;14.27;;;17.20;99.90;;;;;;5027942;28;20934;-70
2022/10/21 05:06:13;;;;;;;20.20;14.00;;;17.20;99.90;;;;;;5041531;28;20239;-70
2022/10/21 05:08:39;;;;;;;19.93;13.73;;;17.20;99.90;;;;;;5023222;28;20212;-70
2022/10/21 05:11:06;;;;;;;18.40;13.07;;;17.20;99.90;;;;;;5023142;28;20224;-70
2022/10/21 05:13:32;;;;;;;24.03;14.67;;;17.30;99.90;;;;;;5024747;28;20680;-70
2022/10/21 05:16:01;;;;;;;19.90;14.73;;;17.30;99.90;;;;;;5024065;28;20203;-70
2022/10/21 05:18:29;;;;;;;22.87;14.70;;;17.40;99.90;;;;;;5059380;28;20191;-70
2022/10/21 05:20:57;;;;;;;20.10;14.80;;;17.40;99.90;;;;;;5028663;28;20180;-70
2022/10/21 05:23:26;;;;;;;20.27;15.10;;;17.50;99.90;;;;;;5029568;28;20192;-70
2022/10/21 05:25:53;;;;;;;24.40;14.30;;;17.50;99.90;;;;;;5042005;28;20180;-70
2022/10/21 05:28:20;;;;;;;21.00;15.43;;;17.60;99.90;;;;;;5023105;28;20311;-70
2022/10/21 05:30:47;;;;;;;19.53;15.03;;;17.60;99.90;;;;;;5033249;28;20220;-70
2022/10/21 05:33:14;;;;;;;22.00;14.93;;;17.70;99.90;;;;;;5029582;28;20638;-70
2022/10/21 05:35:41;;;;;;;21.87;15.70;;;17.70;99.90;;;;;;5028924;28;20188;-70
2022/10/21 05:38:08;;;;;;;23.43;15.77;;;17.70;99.90;;;;;;5044402;28;20335;-70
2022/10/21 05:40:34;;;;;;;23.23;16.40;;;17.70;99.90;;;;;;5010853;28;20454;-70
2022/10/21 05:43:02;;;;;;;22.43;16.23;;;17.80;99.90;;;;;;5025418;28;20188;-70
2022/10/21 05:45:29;;;;;;;23.77;16.80;;;17.80;99.90;;;;;;5043121;28;20231;-70
2022/10/21 05:47:55;;;;;;;27.33;16.53;;;17.80;99.90;;;;;;5029208;28;20227;-70
2022/10/21 05:50:21;;;;;;;24.07;16.97;;;17.90;99.90;;;;;;5025656;28;20253;-70
2022/10/21 05:52:47;;;;;;;30.43;16.90;;;17.90;99.90;;;;;;5025964;28;20195;-70
2022/10/21 05:55:14;;;;;;;25.33;16.60;;;17.90;99.90;;;;;;5019726;28;20267;-70
2022/10/21 05:57:41;;;;;;;22.63;16.10;;;17.90;99.90;;;;;;5015589;28;20184;-70
2022/10/21 06:00:08;;;;;;;25.03;17.07;;;17.90;99.90;;;;;;5035937;28;20235;-70
2022/10/21 06:02:35;;;;;;;27.83;17.27;;;17.90;99.90;;;;;;5026156;28;21010;-69
2022/10/21 06:05:04;;;;;;;24.47;17.00;;;17.90;99.90;;;;;;5042756;28;20195;-70
2022/10/21 06:07:32;;;;;;;30.03;17.20;;;18.00;99.90;;;;;;5043246;28;20597;-70
2022/10/21 06:09:58;;;;;;;29.60;17.00;;;18.00;99.90;;;;;;5036526;28;20203;-70
2022/10/21 06:12:26;;;;;;;20.43;16.63;;;18.00;99.90;;;;;;5025286;28;20180;-70
2022/10/21 06:14:52;;;;;;;22.27;16.20;;;18.00;99.90;;;;;;5005108;28;20572;-70
2022/10/21 06:17:21;;;;;;;21.77;16.07;;;18.10;99.90;;;;;;5020972;28;20196;-70
2022/10/21 06:19:48;;;;;;;25.73;16.50;;;18.10;99.90;;;;;;5027157;28;20184;-70
2022/10/21 06:22:15;;;;;;;34.73;17.30;;;18.10;99.90;;;;;;5008041;28;20280;-70
2022/10/21 06:24:42;;;;;;;27.53;16.77;;;18.20;99.90;;;;;;5026865;28;20637;-70
2022/10/21 06:27:08;;;;;;;30.00;17.57;;;18.20;99.90;;;;;;5029349;28;20511;-70
2022/10/21 06:29:35;;;;;;;23.87;16.47;;;18.20;99.90;;;;;;5028233;28;20272;-70
2022/10/21 06:32:01;;;;;;;25.40;16.17;;;18.30;99.90;;;;;;5030348;28;20211;-70
2022/10/21 06:34:28;;;;;;;29.80;17.53;;;18.30;99.90;;;;;;5024358;28;20386;-70
2022/10/21 06:36:56;;;;;;;22.40;16.87;;;18.30;99.90;;;;;;5031186;28;20184;-70
2022/10/21 06:39:22;;;;;;;25.17;16.37;;;18.30;99.90;;;;;;5026024;28;20192;-70
2022/10/21 06:41:48;;;;;;;30.53;15.80;;;18.30;99.90;;;;;;5041488;28;20183;-70
2022/10/21 06:44:14;;;;;;;23.40;16.67;;;18.40;99.90;;;;;;5011476;28;20263;-70
2022/10/21 06:46:43;;;;;;;23.27;14.73;;;18.40;99.90;;;;;;5029261;28;20271;-70
2022/10/21 06:49:10;;;;;;;22.17;15.90;;;18.40;99.90;;;;;;5030433;28;20189;-70
2022/10/21 06:51:37;;;;;;;25.10;15.47;;;18.50;99.90;;;;;;5016695;28;20213;-70
2022/10/21 06:54:03;;;;;;;22.83;14.90;;;18.50;99.90;;;;;;5030465;28;20245;-69
2022/10/21 06:56:31;;;;;;;29.33;15.23;;;18.60;99.90;;;;;;5025156;28;20252;-68
2022/10/21 06:58:58;;;;;;;25.37;15.20;;;18.60;99.90;;;;;;5017149;28;20278;-70
2022/10/21 07:01:33;;;;;;;24.13;15.53;;;18.60;99.90;;;;;;5024995;28;20208;-70
2022/10/21 07:03:59;;;;;;;29.63;15.37;;;18.60;99.90;;;;;;5021892;28;20211;-70
2022/10/21 07:06:26;;;;;;;24.53;15.33;;;18.60;99.90;;;;;;5031977;28;20191;-70
2022/10/21 07:08:52;;;;;;;19.80;14.77;;;18.60;99.90;;;;;;5024841;28;20487;-70
2022/10/21 07:11:19;;;;;;;21.13;15.50;;;18.70;99.90;;;;;;5038588;28;20217;-70
2022/10/21 07:13:45;;;;;;;16.73;13.90;;;18.70;99.90;;;;;;5025361;28;20299;-70
2022/10/21 07:16:22;;;;;;;27.20;14.97;;;18.80;99.90;;;;;;5038750;28;20181;-70
2022/10/21 07:18:48;;;;;;;26.07;15.57;;;18.90;99.90;;;;;;5011999;28;20180;-70
2022/10/21 07:21:19;;;;;;;33.90;14.70;;;19.00;99.90;;;;;;5023586;28;20282;-68
2022/10/21 07:23:51;;;;;;;28.00;15.63;;;18.90;99.90;;;;;;5024760;28;20945;-68
2022/10/21 07:26:21;;;;;;;19.00;14.63;;;19.00;99.90;;;;;;5024311;28;20296;-68
2022/10/21 07:28:48;;;;;;;23.83;14.57;;;19.00;99.90;;;;;;5024334;28;20201;-68
2022/10/21 07:31:20;;;;;;;20.93;13.90;;;19.10;99.90;;;;;;5017979;28;20745;-68
2022/10/21 07:33:47;;;;;;;22.17;15.13;;;19.10;99.90;;;;;;5026390;28;20189;-68
2022/10/21 07:36:18;;;;;;;31.20;15.73;;;19.20;99.90;;;;;;5024426;28;20212;-68
2022/10/21 07:38:47;;;;;;;22.50;15.30;;;19.20;99.90;;;;;;5024147;28;20196;-68
2022/10/21 07:41:20;;;;;;;24.10;13.97;;;19.30;99.90;;;;;;5028949;28;20188;-68
2022/10/21 07:43:48;;;;;;;25.83;14.40;;;19.40;99.90;;;;;;5022659;28;20668;-68
2022/10/21 07:46:16;;;;;;;25.60;13.63;;;19.50;99.90;;;;;;5024642;28;20192;-68
2022/10/21 07:48:43;;;;;;;18.77;12.53;;;19.50;99.90;;;;;;5024245;28;20188;-68
2022/10/21 07:51:14;;;;;;;20.67;12.53;;;19.50;99.90;;;;;;5026266;28;20262;-68
2022/10/21 07:53:41;;;;;;;21.43;13.23;;;19.50;99.90;;;;;;5024085;28;20200;-68
2022/10/21 07:56:13;;;;;;;27.73;14.13;;;19.50;99.90;;;;;;5023278;28;20183;-68
2022/10/21 07:58:39;;;;;;;21.43;12.93;;;19.50;99.90;;;;;;5027390;28;20222;-68
2022/10/21 08:01:08;;;;;;;23.07;13.13;;;19.50;99.90;;;;;;5030548;28;20196;-68
2022/10/21 08:03:36;;;;;;;27.87;13.87;;;19.60;99.90;;;;;;5019183;28;20245;-68
2022/10/21 08:06:05;;;;;;;21.87;12.50;;;19.60;99.90;;;;;;5034378;28;20192;-68
2022/10/21 08:08:33;;;;;;;28.90;13.67;;;19.70;99.90;;;;;;5022663;28;20279;-68
2022/10/21 08:11:01;;;;;;;26.73;13.60;;;19.80;99.90;;;;;;5042997;28;20747;-68
2022/10/21 08:13:27;;;;;;;28.93;14.43;;;19.90;99.90;;;;;;5029977;28;20242;-68
2022/10/21 08:15:55;;;;;;;26.40;13.17;;;20.00;99.90;;;;;;5024083;28;20198;-68
2022/10/21 08:18:22;;;;;;;25.17;13.57;;;20.00;99.90;;;;;;5022523;28;20195;-68
2022/10/21 08:20:49;;;;;;;30.10;13.33;;;20.10;99.90;;;;;;5020561;28;20192;-68
2022/10/21 08:23:20;;;;;;;20.67;12.37;;;20.10;99.90;;;;;;5024414;28;20196;-68
2022/10/21 08:25:53;;;;;;;22.83;12.37;;;20.10;99.90;;;;;;5019471;28;20718;-68
2022/10/21 08:28:22;;;;;;;24.40;13.27;;;20.10;99.90;;;;;;5016946;28;20234;-68
2022/10/21 08:30:49;;;;;;;23.23;13.63;;;20.20;99.90;;;;;;5025847;28;381083;-68
2022/10/21 08:33:16;;;;;;;26.10;13.07;;;20.30;99.90;;;;;;5042298;28;20204;-68
2022/10/21 08:35:42;;;;;;;20.43;12.07;;;20.40;99.90;;;;;;5026615;28;20972;-68
2022/10/21 08:38:10;;;;;;;21.70;12.17;;;20.40;99.90;;;;;;5024533;28;20188;-68
2022/10/21 08:40:43;;;;;;;22.48;13.10;;;20.50;99.90;;;;;;5026161;28;20200;-68
2022/10/21 08:43:38;;;;;;;23.13;12.57;;;20.50;99.90;;;;;;5026168;28;20192;-68
2022/10/21 08:46:22;;;;;;;24.77;12.87;;;20.60;99.90;;;;;;5022640;28;20192;-68
2022/10/21 08:49:12;;;;;;;24.50;12.80;;;20.70;99.90;;;;;;5026679;28;20271;-68
2022/10/21 08:52:12;;;;;;;28.13;13.77;;;20.80;99.90;;;;;;5016939;28;20219;-69
2022/10/21 08:54:48;;;;;;;29.13;14.43;;;21.00;99.90;;;;;;5017504;28;20278;-68
2022/10/21 08:57:15;;;;;;;24.30;14.10;;;21.00;99.90;;;;;;5032955;28;20638;-68
2022/10/21 08:59:42;;;;;;;26.00;13.35;;;21.00;99.90;;;;;;5020180;28;20193;-68
2022/10/21 09:02:56;;;;;;;21.57;13.00;;;21.00;99.90;;;;;;5023100;28;20543;-68
2022/10/21 09:05:56;;;;;;;29.03;14.03;;;21.00;99.90;;;;;;5003866;28;20208;-66
2022/10/21 09:08:55;;;;;;;21.33;12.40;;;21.10;99.90;;;;;;5019461;28;20200;-69
2022/10/21 09:11:51;;;;;;;27.90;13.47;;;21.20;99.90;;;;;;5019441;28;20781;-69
2022/10/21 09:14:56;;;;;;;23.00;13.10;;;21.20;99.90;;;;;;5023796;28;20672;-69
2022/10/21 09:17:52;;;;;;;19.15;11.57;;;21.30;99.90;;;;;;5001876;28;20188;-68
2022/10/21 09:21:08;;;;;;;22.90;12.75;;;21.30;99.90;;;;;;5018984;28;20207;-69
2022/10/21 09:24:08;;;;;;;27.10;13.50;;;21.40;99.90;;;;;;5025855;28;20184;-69
2022/10/21 09:26:42;;;;;;;26.48;13.10;;;21.60;99.90;;;;;;5023561;28;20246;-69
2022/10/21 09:29:35;;;;;;;23.47;12.23;;;21.60;99.90;;;;;;5018084;28;20351;-68
2022/10/21 09:32:14;;;;;;;27.37;12.67;;;21.80;99.90;;;;;;5021850;28;20192;-68
2022/10/21 09:35:05;;;;;;;23.50;13.10;;;21.80;99.90;;;;;;5026631;28;20705;-69
2022/10/21 09:37:43;;;;;;;17.48;12.73;;;21.60;99.90;;;;;;5041144;28;20657;-69
2022/10/21 09:40:27;;;;;;;18.60;13.33;;;21.40;99.90;;;;;;5024125;28;20290;-69
2022/10/21 09:42:58;;;;;;;20.75;13.30;;;21.60;99.90;;;;;;5029992;28;20249;-69
2022/10/21 09:45:46;;;;;;;26.03;13.23;;;21.80;99.90;;;;;;5035738;28;20187;-68
2022/10/21 09:48:21;;;;;;;27.35;14.68;;;21.90;99.90;;;;;;5023455;28;20198;-68
2022/10/21 09:51:27;;;;;;;27.33;13.52;;;22.00;99.90;;;;;;5022207;28;20270;-69
2022/10/21 09:54:15;;;;;;;25.30;13.57;;;22.20;99.90;;;;;;5018997;28;20203;-69
2022/10/21 09:57:39;;;;;;;17.88;13.15;;;22.20;99.90;;;;;;5037457;28;20665;-69
2022/10/21 10:00:07;;;;;;;16.00;12.70;;;22.30;99.90;;;;;;5025397;28;20195;-68
2022/10/21 10:02:39;;;;;;;20.88;11.85;;;22.40;99.90;;;;;;5025904;28;20192;-68
2022/10/21 10:05:43;;;;;;;25.17;12.80;;;22.40;99.90;;;;;;5024535;28;20196;-68
2022/10/21 10:08:46;;;;;;;23.65;12.55;;;22.50;99.90;;;;;;5035409;28;20202;-69
2022/10/21 10:11:20;;;;;;;21.55;11.80;;;22.70;99.90;;;;;;5008390;28;20354;-69
2022/10/21 10:13:52;;;;;;;19.15;12.07;;;22.90;99.90;;;;;;5025847;28;20215;-69
2022/10/21 10:16:29;;;;;;;25.85;12.55;;;22.90;99.90;;;;;;5014546;28;20283;-69
2022/10/21 10:19:21;;;;;;;19.20;11.75;;;23.10;99.90;;;;;;5025659;28;20268;-69
2022/10/21 10:22:12;;;;;;;26.27;11.55;;;23.10;99.90;;;;;;5021852;28;20188;-69
2022/10/21 10:24:41;;;;;;;21.23;10.85;;;23.80;99.90;;;;;;5021155;28;20202;-69
2022/10/21 10:27:22;;;;;;;22.15;11.30;;;24.70;99.90;;;;;;5026841;28;20188;-69
2022/10/21 10:29:54;;;;;;;26.30;10.98;;;25.10;99.90;;;;;;5024229;28;20357;-69
2022/10/21 10:32:24;;;;;;;24.88;11.32;;;25.00;99.90;;;;;;5038128;28;20188;-69
2022/10/21 10:34:59;;;;;;;20.77;11.20;;;24.90;99.90;;;;;;5019191;28;20680;-69
2022/10/21 10:37:32;;;;;;;20.88;9.90;;;24.60;99.90;;;;;;5019440;28;20661;-68
2022/10/21 10:40:05;;;;;;;21.10;10.57;;;24.20;99.90;;;;;;5023999;28;20546;-69
2022/10/21 10:42:44;;;;;;;19.65;10.50;;;24.10;99.90;;;;;;5011956;28;20219;-69
2022/10/21 10:45:22;;;;;;;14.27;10.05;;;24.10;99.90;;;;;;5018680;28;20195;-69
2022/10/21 10:47:58;;;;;;;19.02;10.13;;;24.20;99.90;;;;;;5022079;28;20310;-68
2022/10/21 10:50:37;;;;;;;22.55;10.00;;;24.30;99.90;;;;;;5030451;28;20254;-68
2022/10/21 10:53:36;;;;;;;18.95;10.18;;;24.10;99.90;;;;;;5026986;28;20253;-68
2022/10/21 10:56:14;;;;;;;16.55;10.30;;;24.80;99.90;;;;;;5020455;28;20196;-68
2022/10/21 10:58:52;;;;;;;14.88;9.82;;;23.80;99.90;;;;;;5020600;28;20189;-68
2022/10/21 11:01:30;;;;;;;19.60;10.98;;;23.50;99.90;;;;;;5032984;28;20275;-68
2022/10/21 11:04:14;;;;;;;21.85;11.80;;;23.10;99.90;;;;;;5018374;28;20188;-68
2022/10/21 11:06:50;;;;;;;21.10;11.32;;;23.00;99.90;;;;;;5013510;28;20206;-71
2022/10/21 11:09:19;;;;;;;17.95;11.32;;;22.90;99.90;;;;;;5023197;28;20251;-70
2022/10/21 11:11:52;;;;;;;19.40;11.70;;;23.00;99.90;;;;;;5018222;28;20250;-70
2022/10/21 11:14:19;;;;;;;22.85;11.77;;;23.10;99.90;;;;;;5026537;28;20194;-70
2022/10/21 11:17:18;;;;;;;22.80;11.70;;;22.90;99.90;;;;;;5016877;28;20188;-70
2022/10/21 11:20:07;;;;;;;26.17;11.50;;;22.80;99.90;;;;;;5036147;28;20177;-70
2022/10/21 11:23:13;;;;;;;15.05;11.48;;;22.70;99.90;;;;;;5023120;28;20268;-70
2022/10/21 11:26:11;;;;;;;22.35;11.95;;;22.80;99.90;;;;;;5023934;28;20188;-70
2022/10/21 11:29:04;;;;;;;17.60;11.52;;;22.80;99.90;;;;;;5023949;28;20192;-70
2022/10/21 11:31:50;;;;;;;17.27;12.52;;;22.80;99.90;;;;;;5020902;28;20956;-70
2022/10/21 11:34:38;;;;;;;21.17;11.55;;;22.80;99.90;;;;;;5026346;28;20194;-70
2022/10/21 11:37:37;;;;;;;28.10;12.38;;;22.70;99.90;;;;;;5023377;28;20650;-70
2022/10/21 11:40:49;;;;;;;15.05;11.82;;;22.80;99.90;;;;;;5007850;28;20196;-70
2022/10/21 11:43:39;;;;;;;20.38;11.20;;;22.70;99.90;;;;;;4999597;28;20220;-70
2022/10/21 11:46:35;;;;;;;23.05;11.75;;;22.60;99.90;;;;;;5011774;28;20232;-70
2022/10/21 11:49:14;;;;;;;20.42;11.27;;;22.70;99.90;;;;;;5041270;28;20263;-70
2022/10/21 11:52:11;;;;;;;19.30;11.27;;;22.80;99.90;;;;;;5030724;28;20212;-70
2022/10/21 11:54:50;;;;;;;29.60;11.68;;;22.70;99.90;;;;;;5025118;28;20234;-70
2022/10/21 11:57:54;;;;;;;20.23;11.75;;;22.70;99.90;;;;;;5021768;28;20855;-69
2022/10/21 12:00:28;;;;;;;17.65;11.40;;;22.60;99.90;;;;;;5020841;28;20338;-70
2022/10/21 12:03:21;;;;;;;17.52;11.77;;;22.70;99.90;;;;;;5018146;28;20223;-70
2022/10/21 12:06:33;;;;;;;29.55;13.48;;;22.70;99.90;;;;;;5028916;28;20196;-70
2022/10/21 12:09:12;;;;;;;20.60;10.98;;;22.80;99.90;;;;;;5021653;28;20200;-70
2022/10/21 12:12:01;;;;;;;26.00;12.10;;;22.70;99.90;;;;;;5025269;28;20208;-70
2022/10/21 12:14:56;;;;;;;18.65;11.68;;;22.50;99.90;;;;;;5034992;28;20218;-69
2022/10/21 12:17:24;;;;;;;18.65;11.63;;;22.50;99.90;;;;;;5021576;28;20189;-70
2022/10/21 12:20:02;;;;;;;25.75;12.45;;;22.50;99.90;;;;;;5027497;28;20295;-70
2022/10/21 12:22:32;;;;;;;23.05;12.55;;;22.40;99.90;;;;;;5030155;28;20307;-70
2022/10/21 12:25:44;;;;;;;21.10;12.40;;;22.40;99.90;;;;;;5028510;28;20234;-70
2022/10/21 12:28:54;;;;;;;24.27;12.38;;;22.30;99.90;;;;;;5020245;28;20196;-70
2022/10/21 12:32:02;;;;;;;18.45;11.55;;;22.10;99.90;;;;;;5036391;28;20219;-70
2022/10/21 12:34:29;;;;;;;22.27;12.65;;;22.10;99.90;;;;;;5020604;28;20211;-71
2022/10/21 12:36:57;;;;;;;18.88;11.85;;;22.10;99.90;;;;;;5043621;28;20519;-70
2022/10/21 12:39:32;;;;;;;24.65;13.18;;;22.20;99.90;;;;;;5015790;28;20250;-70
2022/10/21 12:42:14;;;;;;;21.13;13.07;;;22.30;99.90;;;;;;5008303;28;20198;-69
2022/10/21 12:44:51;;;;;;;19.40;13.00;;;22.30;99.90;;;;;;5029485;28;20180;-70
2022/10/21 12:47:41;;;;;;;21.35;11.90;;;22.20;99.90;;;;;;5021994;28;20199;-70
2022/10/21 12:50:24;;;;;;;22.65;12.07;;;22.20;99.90;;;;;;5029185;28;20207;-70
2022/10/21 12:53:35;;;;;;;16.10;11.45;;;22.10;99.90;;;;;;5028572;28;20180;-70
2022/10/21 12:56:04;;;;;;;19.38;12.70;;;21.90;99.90;;;;;;5045088;28;20211;-70
2022/10/21 12:58:49;;;;;;;20.67;11.82;;;21.90;99.90;;;;;;5042328;28;20198;-70
2022/10/21 13:01:37;;;;;;;18.63;12.70;;;21.90;99.90;;;;;;5043330;28;20176;-70
2022/10/21 13:04:24;;;;;;;22.47;12.07;;;21.80;99.90;;;;;;5022725;28;20192;-70
2022/10/21 13:06:54;;;;;;;27.67;12.23;;;21.80;99.90;;;;;;5026013;28;20195;-70
2022/10/21 13:09:49;;;;;;;17.95;13.23;;;21.80;99.90;;;;;;5030338;28;20188;-70